Elk City, Idaho
Current Conditions -  °F | °C
As of 8:15 PM on Friday 19 Dec 2014 (Local Time) from KGIC Reporting Station
Clear Clear  
Wind Chill: 35°   Ceiling: Unl
Heat Index: 35°   Visibility: 10mi
Dew Point: 29°   Wind: 3mph
Humidity: 79%   Direction: 240°WSW
Pressure: 30.07"   Gusts: NA
Location:  45.83°N, 115.44°W
Report Text: KGIC 200415Z AUTO 24003KT 10SM CLR 02/M02 A3007 RMK AO1 T00161016
Loading
Personal Weather Stations






























Interactive Weather Map New forecast layout! Learn more

10-Day Weather Forecast

Advertisements
Track Severe Weather on mobile